Flight Track Log - Related Links

Times and Time Zones

All times are in EDT time to prevent confusion due to time zone crossing. See the JBU10 flight status page for this flight to view local times or setup timezone preferences in your user account.

Time Position Orientation Groundspeed Altitude Reporting Facility
EDT Latitude Longitude Course Direction KTS MPH feet Rate Location/Type
Sat 09:40:00 PM 18.7626 -69.7000 North  Level FlightAware Approximate
Sat 09:41:00 PM 18.8808 -69.6953 North  Level FlightAware Approximate
Sat 09:42:00 PM 18.9987 -69.6835 North  Level FlightAware Approximate
Sat 09:42:57 PM 18.8080 -69.8020 356° North 345 397 11,000  Level FlightAware ADS-B
Sat 09:43:00 PM 19.1169 -69.6885 356° North  Level FlightAware Approximate
Sat 09:43:31 PM 18.8560 -69.8190 341° North 352 405 11,100  Level FlightAware ADS-B
Sat 09:46:00 PM 19.1472 -69.8624 356° North  Level Estimated
Sat 09:47:00 PM 19.2600 -69.8793 352° North  Level Estimated
Sat 09:48:00 PM 19.3728 -69.8962 352° North  Level Estimated
Sat 09:49:00 PM 19.4856 -69.9132 352° North  Level Estimated
Sat 09:49:38 PM 19.5210 -70.0530 352° North 429 494 22,400  Level FlightAware ADS-B
Sat 09:50:11 PM 19.5830 -70.0750 342° North 433 498 23,100 560 Climbing FlightAware ADS-B
Sat 09:50:53 PM 19.6500 -70.0990 341° North 433 498 23,100  Level FlightAware ADS-B
Sat 09:51:30 PM 19.7090 -70.1210 341° North 433 498 23,100 1,385 Level FlightAware ADS-B
Sat 09:52:11 PM 19.8070 -70.1550 342° North 444 511 24,900 1,403 Climbing FlightAware ADS-B
Sat 09:52:47 PM 19.8660 -70.1770 341° North 444 511 24,900  Level FlightAware ADS-B
Sat 09:53:23 PM 19.9250 -70.1980 341° North 444 511 24,900  Level FlightAware ADS-B
Sat 09:53:59 PM 19.9850 -70.2200 341° North 444 511 24,900  Level FlightAware ADS-B
Sat 09:54:34 PM 20.0430 -70.2410 341° North 444 511 24,900  Level FlightAware ADS-B
Sat 09:55:10 PM 20.1020 -70.2630 341° North 444 511 24,900 2,792 Level FlightAware ADS-B
Sat 09:56:15 PM 20.3036 -70.3133 341° North 451 519 29,600 2,855 Climbing Miami Center
Sat 09:57:14 PM 20.4306 -70.3139 360° North 451 519 30,800 1,200 Climbing Miami Center
Sat 09:58:15 PM 20.5544 -70.2858 12° North 442 509 32,000 595 Climbing Miami Center
Sat 09:59:15 PM 20.6761 -70.2558 13° North 442 509 32,000  Level Miami Center
Sat 10:00:14 PM 20.7997 -70.2231 14° North 447 514 32,000  Level Miami Center
Sat 10:01:15 PM 20.9233 -70.1928 13° North 447 514 32,000  Level Miami Center
Sat 10:02:17 PM 21.0428 -70.1603 14° North 447 514 32,000  Level Miami Center
Sat 10:03:14 PM 21.1644 -70.1297 13° North 447 514 32,000  Level Miami Center
Sat 10:04:14 PM 21.2861 -70.0972 14° North 447 514 32,000 98 Level Miami Center
Sat 10:05:17 PM 21.4097 -70.0642 14° North 447 514 32,200 732 Climbing Miami Center
Sat 10:06:17 PM 21.5314 -70.0336 13° North 447 514 33,500 966 Climbing Miami Center
Sat 10:07:15 PM 21.6508 -70.0028 13° North 447 514 34,100 756 Climbing Miami Center
Sat 10:08:16 PM 21.7683 -69.9722 14° North 447 514 35,000 793 Climbing Miami Center
Sat 10:09:16 PM 21.8878 -69.9414 13° North 447 514 35,700 500 Climbing Miami Center
Sat 10:10:16 PM 22.0050 -69.9064 15° North 442 509 36,000 153 Climbing Miami Center
Sat 10:11:14 PM 22.1225 -69.8756 14° North 437 503 36,000  Level Miami Center
Sat 10:12:17 PM 22.2400 -69.8469 13° North 432 497 36,000  Level Miami Center
Sat 10:13:14 PM 22.3575 -69.8158 14° North 432 497 36,000  Level Miami Center
Sat 10:14:15 PM 22.4769 -69.7825 14° North 432 497 36,000  Level Miami Center
Sat 10:15:15 PM 22.5942 -69.7492 15° North 432 497 36,000  Level Miami Center
Sat 10:16:16 PM 22.7136 -69.7203 13° North 437 503 36,000  Level Miami Center
Sat 10:17:17 PM 22.8331 -69.6889 14° North 437 503 36,000  Level Miami Center
Sat 10:18:15 PM 22.9464 -69.6556 15° North 430 495 36,000  Level Miami Center
Sat 10:19:17 PM 23.0678 -69.6264 12° North 430 495 36,000  Level Miami Center
Sat 10:20:14 PM 23.1831 -69.5906 16° North 430 495 36,000  Level Miami Center
Sat 10:21:16 PM 23.3047 -69.5633 12° North 430 495 36,000  Level Miami Center
Sat 10:22:17 PM 23.4239 -69.5294 15° North 435 501 36,000  Level Miami Center
Sat 10:23:16 PM 23.5417 -69.5022 12° North 435 501 36,000  Level Miami Center
Sat 10:24:15 PM 23.6586 -69.4661 16° North 430 495 36,000  Level Miami Center
Sat 10:25:16 PM 23.7758 -69.4319 15° North 435 501 36,000  Level Miami Center
Sat 10:26:17 PM 23.8953 -69.4044 12° North 430 495 36,000  Level Miami Center
Sat 10:27:14 PM 24.0125 -69.3681 16° North 430 495 36,000  Level Miami Center
Sat 10:28:14 PM 24.1297 -69.3336 15° North 435 501 36,000  Level Miami Center
Sat 10:29:15 PM 24.2492 -69.3061 12° North 435 501 36,000  Level Miami Center
Sat 10:30:17 PM 24.3686 -69.2739 14° North 430 495 36,000  Level Miami Center
Sat 10:31:15 PM 24.4836 -69.2394 15° North 430 495 36,000  Level Miami Center
Sat 10:32:17 PM 24.6008 -69.2072 14° North 430 495 36,000  Level Miami Center
Sat 10:33:16 PM 24.7181 -69.1747 14° North 430 495 36,000  Level Miami Center
Sat 10:34:15 PM 24.8350 -69.1400 15° North 430 495 36,000  Level Miami Center
Sat 10:35:14 PM 24.9525 -69.1142 11° North 430 495 36,000  Level Miami Center
Sat 10:37:00 PM 25.1490 -69.1206 347° North  Level FlightAware Approximate
Sat 10:44:00 PM 25.9534 -69.2836 350° North  Level FlightAware Approximate
Sat 10:45:00 PM 26.0684 -69.3067 350° North  Level FlightAware Approximate
Sat 10:46:00 PM 26.1833 -69.3298 350° North  Level FlightAware Approximate
Sat 10:47:00 PM 26.2982 -69.3534 348° North  Level FlightAware Approximate
Sat 10:48:00 PM 26.4126 -69.3798 348° North  Level FlightAware Approximate
Sat 10:49:00 PM 26.5271 -69.4062 348° North  Level FlightAware Approximate
Sat 10:50:00 PM 26.6415 -69.4326 348° North  Level FlightAware Approximate
Sat 10:50:27 PM 26.7167 -69.4500 349° North 432 497 36,000  Level New York Oceanic (ODAPS)
Sat 10:51:00 PM 26.7561 -69.4582 349° North  Level FlightAware Approximate
Sat 10:52:00 PM 26.8709 -69.4821 349° North  Level FlightAware Approximate
Sat 10:53:00 PM 26.9858 -69.5060 349° North  Level FlightAware Approximate
Sat 10:54:00 PM 27.1007 -69.5300 349° North  Level FlightAware Approximate
Sat 10:55:00 PM 27.2155 -69.5541 349° North  Level FlightAware Approximate
Sat 10:56:00 PM 27.5488 -69.6295 349° North 432 497 36,000  Level FlightAware Transoceanic
Sat 10:57:00 PM 27.6677 -69.6554 349° North 432 497 36,000  Level FlightAware Transoceanic
Sat 10:58:00 PM 27.7865 -69.6813 349° North 432 497 36,000  Level FlightAware Transoceanic
Sat 10:59:00 PM 27.9054 -69.7073 349° North 432 497 36,000  Level FlightAware Transoceanic
Sat 11:00:00 PM 28.0242 -69.7333 349° North 432 497 36,000  Level FlightAware Transoceanic
Sat 11:01:00 PM 28.1430 -69.7594 349° North 432 497 36,000  Level FlightAware Transoceanic
Sat 11:02:00 PM 28.2619 -69.7856 349° North 432 497 36,000  Level FlightAware Transoceanic
Sat 11:03:00 PM 28.3807 -69.8118 349° North 432 497 36,000  Level FlightAware Transoceanic
Sat 11:04:00 PM 28.4995 -69.8380 349° North 432 497 36,000  Level FlightAware Transoceanic
Sat 11:05:00 PM 28.6183 -69.8644 349° North 432 497 36,000  Level FlightAware Transoceanic
Sat 11:06:00 PM 28.7372 -69.8907 349° North 432 497 36,000  Level FlightAware Transoceanic
Sat 11:07:00 PM 28.8560 -69.9172 349° North 432 497 36,000  Level FlightAware Transoceanic
Sat 11:08:00 PM 28.9748 -69.9437 349° North 432 497 36,000  Level FlightAware Transoceanic
Sat 11:09:00 PM 29.0936 -69.9703 349° North 432 497 36,000  Level FlightAware Transoceanic
Sat 11:10:00 PM 29.2124 -69.9969 349° North 432 497 36,000  Level FlightAware Transoceanic
Sat 11:11:00 PM 29.3312 -70.0236 349° North 432 497 36,000  Level FlightAware Transoceanic
Sat 11:12:00 PM 29.4499 -70.0503 349° North 432 497 36,000  Level FlightAware Transoceanic
Sat 11:13:00 PM 29.5687 -70.0772 349° North 432 497 36,000  Level FlightAware Transoceanic
Sat 11:14:00 PM 29.6875 -70.1040 349° North 432 497 36,000  Level FlightAware Transoceanic
Sat 11:15:00 PM 29.8062 -70.1310 349° North 432 497 36,000  Level FlightAware Transoceanic
Sat 11:16:00 PM 29.9250 -70.1580 349° North 432 497 36,000  Level FlightAware Transoceanic
Sat 11:17:00 PM 30.0438 -70.1851 349° North 432 497 36,000  Level FlightAware Transoceanic
Sat 11:18:00 PM 30.1625 -70.2122 349° North 432 497 36,000  Level FlightAware Transoceanic
Sat 11:19:00 PM 30.2813 -70.2394 349° North 432 497 36,000  Level FlightAware Transoceanic
Sat 11:20:00 PM 30.4000 -70.2667 349° North 432 497 36,000  Level FlightAware Transoceanic
Sat 11:21:00 PM 30.5212 -70.2943 349° North 432 497 36,000  Level FlightAware Transoceanic
Sat 11:21:53 PM 30.4000 -70.2667 349° North 437 503 36,000  Level New York Oceanic (ODAPS)
Sat 11:22:00 PM 30.6425 -70.3220 349° North 432 497 36,000  Level FlightAware Transoceanic
Sat 11:23:00 PM 30.7637 -70.3497 349° North 432 497 36,000  Level FlightAware Transoceanic
Sat 11:24:00 PM 30.8849 -70.3775 349° North 432 497 36,000  Level FlightAware Transoceanic
Sat 11:25:00 PM 31.0061 -70.4054 349° North 432 497 36,000  Level FlightAware Transoceanic
Sat 11:26:00 PM 31.1273 -70.4333 349° North 432 497 36,000  Level FlightAware Transoceanic
Sat 11:27:00 PM 31.2486 -70.4614 349° North 432 497 36,000  Level FlightAware Transoceanic
Sat 11:28:00 PM 31.4722 -70.5133 349° North 437 503 36,000  Level FlightAware Transoceanic
Sat 11:29:00 PM 31.5912 -70.5410 349° North 437 503 36,000  Level FlightAware Transoceanic
Sat 11:30:00 PM 31.7103 -70.5688 349° North 437 503 36,000  Level FlightAware Transoceanic
Sat 11:31:00 PM 31.8294 -70.5967 349° North 437 503 36,000  Level FlightAware Transoceanic
Sat 11:32:00 PM 31.9485 -70.6247 349° North 437 503 36,000  Level FlightAware Transoceanic
Sat 11:33:00 PM 32.0676 -70.6527 349° North 437 503 36,000  Level FlightAware Transoceanic
Sat 11:34:00 PM 32.1866 -70.6808 349° North 437 503 36,000  Level FlightAware Transoceanic
Sat 11:35:00 PM 32.3057 -70.7090 349° North 437 503 36,000  Level FlightAware Transoceanic
Sat 11:36:00 PM 32.4248 -70.7373 349° North 437 503 36,000  Level FlightAware Transoceanic
Sat 11:37:00 PM 32.5438 -70.7656 349° North 437 503 36,000  Level FlightAware Transoceanic
Sat 11:38:00 PM 32.6628 -70.7940 349° North 437 503 36,000  Level FlightAware Transoceanic
Sat 11:39:00 PM 32.7819 -70.8225 349° North 437 503 36,000  Level FlightAware Transoceanic
Sat 11:40:00 PM 32.9009 -70.8510 349° North 437 503 36,000  Level FlightAware Transoceanic
Sat 11:41:00 PM 33.0199 -70.8797 349° North 437 503 36,000  Level FlightAware Transoceanic
Sat 11:42:00 PM 33.1390 -70.9084 349° North 437 503 36,000  Level FlightAware Transoceanic
Sat 11:43:00 PM 33.2580 -70.9372 349° North 437 503 36,000  Level FlightAware Transoceanic
Sat 11:44:00 PM 33.3770 -70.9660 349° North 437 503 36,000  Level FlightAware Transoceanic
Sat 11:45:00 PM 33.4960 -70.9950 349° North 437 503 36,000  Level FlightAware Transoceanic
Sat 11:46:00 PM 33.6149 -71.0240 349° North 437 503 36,000  Level FlightAware Transoceanic
Sat 11:47:00 PM 33.7339 -71.0531 348° North 437 503 36,000  Level FlightAware Transoceanic
Sat 11:48:00 PM 33.8529 -71.0823 348° North 437 503 36,000  Level FlightAware Transoceanic
Sat 11:49:00 PM 33.9719 -71.1116 348° North 437 503 36,000  Level FlightAware Transoceanic
Sat 11:50:00 PM 34.0908 -71.1409 348° North 437 503 36,000  Level FlightAware Transoceanic
Sat 11:51:00 PM 34.2098 -71.1703 348° North 437 503 36,000  Level FlightAware Transoceanic
Sat 11:52:00 PM 34.3288 -71.1999 348° North 437 503 36,000  Level FlightAware Transoceanic
Sat 11:53:00 PM 34.4477 -71.2295 348° North 437 503 36,000  Level FlightAware Transoceanic
Sat 11:54:00 PM 34.5666 -71.2591 348° North 437 503 36,000  Level FlightAware Transoceanic
Sat 11:55:00 PM 34.6856 -71.2889 348° North 437 503 36,000  Level FlightAware Transoceanic
Sat 11:56:00 PM 34.8045 -71.3188 348° North 437 503 36,000  Level FlightAware Transoceanic
Sat 11:57:00 PM 34.9234 -71.3487 348° North 437 503 36,000  Level FlightAware Transoceanic
Sat 11:58:00 PM 35.0423 -71.3787 348° North 437 503 36,000  Level FlightAware Transoceanic
Sat 11:59:00 PM 35.1612 -71.4089 348° North 437 503 36,000  Level FlightAware Transoceanic
Sun 12:00:00 AM 35.2801 -71.4391 348° North 437 503 36,000  Level FlightAware Transoceanic
Sun 12:01:00 AM 35.3989 -71.4694 348° North 437 503 36,000  Level FlightAware Transoceanic
Sun 12:02:00 AM 35.5178 -71.4997 348° North 437 503 36,000  Level FlightAware Transoceanic
Sun 12:03:00 AM 35.6367 -71.5302 348° North 437 503 36,000  Level FlightAware Transoceanic
Sun 12:04:00 AM 35.7556 -71.5608 348° North 437 503 36,000  Level FlightAware Transoceanic
Sun 12:05:00 AM 35.8744 -71.5914 348° North 437 503 36,000  Level FlightAware Transoceanic
Sun 12:06:00 AM 35.9933 -71.6222 348° North 437 503 36,000  Level FlightAware Transoceanic
Sun 12:07:00 AM 36.1121 -71.6530 348° North 437 503 36,000  Level FlightAware Transoceanic
Sun 12:08:00 AM 36.2309 -71.6840 348° North 437 503 36,000 -77 Level FlightAware Transoceanic
Sun 12:08:18 AM 36.3944 -71.3647 348° North 446 513 35,900  Descending New York Center
Sun 12:09:00 AM 36.3497 -71.7150 348° North 437 503 36,000  Climbing FlightAware Transoceanic
Sun 12:09:20 AM 36.5300 -71.3711 358° North 464 534 35,900  Descending New York Center
Sun 12:10:00 AM 36.4686 -71.7461 348° North 437 503 36,000 102 Climbing FlightAware Transoceanic
Sun 12:10:19 AM 36.6636 -71.3747 359° North 470 541 36,000  Level New York Center
Sun 12:11:00 AM 36.5873 -71.7773 348° North 437 503 36,000  Level FlightAware Transoceanic
Sun 12:11:18 AM 36.7842 -71.4278 341° North 484 557 36,000  Level New York Center
Sun 12:12:00 AM 36.7062 -71.8086 348° North 437 503 36,000  Level FlightAware Transoceanic
Sun 12:12:19 AM 36.8986 -71.5092 330° Northwest 453 521 36,000  Level New York Center
Sun 12:13:00 AM 36.8249 -71.8400 348° North 437 503 36,000  Level FlightAware Transoceanic
Sun 12:18:13 AM 37.5394 -71.9816 330° Northwest 445 512 36,000  Level FlightAware ADS-B
Sun 12:18:45 AM 37.5955 -72.0224 330° Northwest 441 507 36,000  Level FlightAware ADS-B
Sun 12:19:15 AM 37.6495 -72.0619 330° Northwest 440 506 36,000 24 Level FlightAware ADS-B
Sun 12:23:00 AM 38.0444 -72.3523 330° Northwest 438 504 36,100  Climbing FlightAware ADS-B
Sun 12:23:30 AM 38.0976 -72.3917 330° Northwest 436 502 36,000 -462 Descending FlightAware ADS-B
Sun 12:24:05 AM 38.1585 -72.4371 330° Northwest 433 498 35,600 -628 Descending FlightAware ADS-B
Sun 12:24:56 AM 38.2454 -72.5017 330° Northwest 422 486 35,100 -659 Descending FlightAware ADS-B
Sun 12:25:27 AM 38.2963 -72.5396 330° Northwest 411 473 34,700 -857 Descending FlightAware ADS-B
Sun 12:25:59 AM 38.3480 -72.5781 330° Northwest 407 468 34,200 -968 Descending FlightAware ADS-B
Sun 12:26:29 AM 38.3969 -72.6148 330° Northwest 407 468 33,700 -1,000 Descending FlightAware ADS-B
Sun 12:26:59 AM 38.4468 -72.6522 330° Northwest 410 472 33,200 -1,000 Descending FlightAware ADS-B
Sun 12:27:29 AM 38.4958 -72.6889 330° Northwest 409 471 32,700 -952 Descending FlightAware ADS-B
Sun 12:28:02 AM 38.5492 -72.7291 330° Northwest 409 471 32,200 -938 Descending FlightAware ADS-B
Sun 12:28:33 AM 38.5995 -72.7670 330° Northwest 412 474 31,700 -984 Descending FlightAware ADS-B
Sun 12:29:03 AM 38.6498 -72.8050 329° Northwest 415 478 31,200 -1,082 Descending FlightAware ADS-B
Sun 12:29:34 AM 38.6996 -72.8426 329° Northwest 413 475 30,600 -1,161 Descending FlightAware ADS-B
Sun 12:30:05 AM 38.7501 -72.8808 329° Northwest 409 471 30,000 -1,279 Descending FlightAware ADS-B
Sun 12:30:35 AM 38.7997 -72.9185 329° Northwest 404 465 29,300 -1,645 Descending FlightAware ADS-B
Sun 12:31:07 AM 38.8494 -72.9563 329° Northwest 397 457 28,300 -2,516 Descending FlightAware ADS-B
Sun 12:31:37 AM 38.8978 -72.9932 329° Northwest 402 463 26,700 -3,148 Descending FlightAware ADS-B
Sun 12:32:08 AM 38.9475 -73.0312 329° Northwest 409 471 25,100 -2,516 Descending FlightAware ADS-B
Sun 12:32:39 AM 38.9974 -73.0691 329° Northwest 401 461 24,100 -1,967 Descending FlightAware ADS-B
Sun 12:33:09 AM 39.0445 -73.1049 329° Northwest 389 448 23,100 -1,700 Descending FlightAware ADS-B
Sun 12:33:39 AM 39.0901 -73.1398 329° Northwest 375 432 22,400 -2,361 Descending FlightAware ADS-B
Sun 12:34:10 AM 39.1368 -73.1759 329° Northwest 385 443 20,700 -2,710 Descending FlightAware ADS-B
Sun 12:34:41 AM 39.1838 -73.2119 329° Northwest 376 433 19,600 -1,672 Descending FlightAware ADS-B
Sun 12:35:11 AM 39.2277 -73.2454 329° Northwest 356 410 19,000 -1,082 Descending FlightAware ADS-B
Sun 12:35:42 AM 39.2699 -73.2778 329° Northwest 338 389 18,500 -885 Descending FlightAware ADS-B
Sun 12:36:12 AM 39.3097 -73.3085 329° Northwest 328 377 18,100 -885 Descending FlightAware ADS-B
Sun 12:36:43 AM 39.3493 -73.3392 329° Northwest 329 379 17,600 -1,082 Descending FlightAware ADS-B
Sun 12:37:13 AM 39.3892 -73.3701 329° Northwest 329 379 17,000 -1,574 Descending FlightAware ADS-B
Sun 12:37:44 AM 39.4288 -73.4008 329° Northwest 328 377 16,000 -1,869 Descending FlightAware ADS-B
Sun 12:38:14 AM 39.4687 -73.4317 329° Northwest 325 374 15,100 -1,742 Descending FlightAware ADS-B
Sun 12:38:46 AM 39.5085 -73.4625 329° Northwest 320 368 14,200 -1,700 Descending FlightAware ADS-B
Sun 12:39:14 AM 39.5443 -73.4904 329° Northwest 315 362 13,400 -1,862 Descending FlightAware ADS-B
Sun 12:39:44 AM 39.5823 -73.5200 329° Northwest 317 365 12,400 -1,800 Descending FlightAware ADS-B
Sun 12:40:14 AM 39.6197 -73.5492 329° Northwest 312 359 11,600 -1,522 Descending FlightAware ADS-B
Sun 12:40:51 AM 39.6643 -73.5839 329° Northwest 304 350 10,700 -1,500 Descending FlightAware ADS-B
Sun 12:41:42 AM 39.7250 -73.6310 329° Northwest 296 341 9,400 -1,297 Descending FlightAware ADS-B
Sun 12:42:05 AM 39.7513 -73.6521 328° Northwest 285 328 9,100 -453 Descending FlightAware ADS-B
Sun 12:42:35 AM 39.7840 -73.6780 329° Northwest 281 323 9,000 -125 Descending FlightAware ADS-B
Sun 12:42:53 AM 39.8046 -73.6938 329° Northwest 280 322 9,000 182 Level FlightAware ADS-B
Sun 12:43:08 AM 39.8221 -73.7075 329° Northwest 280 322 9,100  Climbing FlightAware ADS-B
Sun 12:43:24 AM 39.8393 -73.7209 329° Northwest 280 322 9,000 -188 Descending FlightAware ADS-B
Sun 12:43:40 AM 39.8572 -73.7350 329° Northwest 280 322 9,000 176 Level FlightAware ADS-B
Sun 12:43:58 AM 39.8766 -73.7504 329° Northwest 279 321 9,100  Climbing FlightAware ADS-B
Sun 12:44:13 AM 39.8933 -73.7636 329° Northwest 282 325 9,000 -200 Descending FlightAware ADS-B
Sun 12:44:28 AM 39.9102 -73.7769 329° Northwest 283 326 9,000  Level FlightAware ADS-B
Sun 12:44:36 AM 39.9191 -73.7838 329° Northwest 283 326 9,000  Level FlightAware ADS-B
Sun 12:44:40 AM 39.9238 -73.7866 335° Northwest 285 328 9,000 231 Level FlightAware ADS-B
Sun 12:45:02 AM 39.9537 -73.7900 355° North 293 337 9,100 162 Climbing FlightAware ADS-B
Sun 12:45:17 AM 39.9737 -73.7856 10° North 293 337 9,100 -222 Level FlightAware ADS-B
Sun 12:45:29 AM 39.9889 -73.7819 11° North 293 337 9,000 -222 Descending FlightAware ADS-B
Sun 12:45:44 AM 40.0090 -73.7770 11° North 293 337 9,000 -400 Level FlightAware ADS-B
Sun 12:45:59 AM 40.0288 -73.7721 11° North 291 335 8,800 -1,200 Descending FlightAware ADS-B
Sun 12:46:14 AM 40.0490 -73.7673 10° North 291 335 8,400 -1,548 Descending FlightAware ADS-B
Sun 12:46:30 AM 40.0701 -73.7623 10° North 291 335 8,000 -1,371 Descending FlightAware ADS-B
Sun 12:46:49 AM 40.0944 -73.7567 10° North 288 331 7,600 -1,371 Descending FlightAware ADS-B
Sun 12:47:05 AM 40.1156 -73.7518 10° North 283 326 7,200 -1,548 Descending FlightAware ADS-B
Sun 12:47:20 AM 40.1348 -73.7473 10° North 282 325 6,800 -1,500 Descending FlightAware ADS-B
Sun 12:47:37 AM 40.1567 -73.7422 10° North 281 323 6,400 -1,371 Descending FlightAware ADS-B
Sun 12:47:55 AM 40.1796 -73.7371 10° North 277 319 6,000 -1,455 Descending FlightAware ADS-B
Sun 12:48:10 AM 40.1985 -73.7331 North 275 316 5,600 -1,455 Descending FlightAware ADS-B
Sun 12:48:28 AM 40.2209 -73.7286 North 274 315 5,200 -1,455 Descending FlightAware ADS-B
Sun 12:48:43 AM 40.2395 -73.7250 North 273 314 4,800 -1,333 Descending FlightAware ADS-B
Sun 12:48:55 AM 40.2555 -73.7217 North 269 310 4,600 -1,412 Descending FlightAware ADS-B
Sun 12:49:00 AM 40.2616 -73.7197 14° North 270 311 4,400 -857 Descending FlightAware ADS-B
Sun 12:49:30 AM 40.2942 -73.6992 26° Northeast 272 313 4,100 -522 Descending FlightAware ADS-B
Sun 12:49:46 AM 40.3121 -73.6864 29° Northeast 274 315 4,000 -130 Descending FlightAware ADS-B
Sun 12:50:16 AM 40.3454 -73.6625 29° Northeast 272 313 4,000 133 Level FlightAware ADS-B
Sun 12:50:31 AM 40.3627 -73.6500 29° Northeast 273 314 4,100  Climbing FlightAware ADS-B
Sun 12:50:47 AM 40.3798 -73.6378 29° Northeast 272 313 4,000 -162 Descending FlightAware ADS-B
Sun 12:51:08 AM 40.4029 -73.6213 29° Northeast 271 312 4,000 118 Level FlightAware ADS-B
Sun 12:51:38 AM 40.4360 -73.5980 28° Northeast 269 310 4,100  Climbing FlightAware ADS-B
Sun 12:52:04 AM 40.4630 -73.5780 29° Northeast 268 308 4,000  Descending FlightAware ADS-B
Sun 12:52:15 AM 40.4763 -73.5690 27° Northeast 269 310 4,100  Climbing FlightAware ADS-B
Sun 12:52:30 AM 40.4933 -73.5568 29° Northeast 269 310 4,000 -200 Descending FlightAware ADS-B
Sun 12:52:45 AM 40.5099 -73.5448 29° Northeast 269 310 4,000  Level FlightAware ADS-B
Sun 12:53:00 AM 40.5263 -73.5331 28° Northeast 271 312 4,000  Level FlightAware ADS-B
Sun 12:53:07 AM 40.5338 -73.5291 22° Northeast 270 311 4,000  Level FlightAware ADS-B
Sun 12:53:12 AM 40.5403 -73.5269 14° North 269 310 4,000 545 Level FlightAware ADS-B
Sun 12:53:18 AM 40.5479 -73.5250 11° North 268 308 4,100  Climbing FlightAware ADS-B
Sun 12:53:36 AM 40.5696 -73.5208 North 268 308 4,000 -140 Descending FlightAware ADS-B
Sun 12:54:01 AM 40.5998 -73.5150 North 268 308 4,000  Level FlightAware ADS-B
Sun 12:54:36 AM 40.6430 -73.5070 North 268 308 4,000  Level FlightAware ADS-B
Sun 12:54:57 AM 40.6680 -73.5040 North 265 305 4,000 -207 Level FlightAware ADS-B
Sun 12:55:05 AM 40.6780 -73.5070 347° North 262 302 3,900 -1,125 Descending FlightAware ADS-B
Sun 12:55:13 AM 40.6860 -73.5140 326° Northwest 259 298 3,700 -1,500 Descending FlightAware ADS-B
Sun 12:55:33 AM 40.7040 -73.5350 319° Northwest 258 297 3,200 -1,050 Descending FlightAware ADS-B
Sun 12:55:53 AM 40.7210 -73.5560 317° Northwest 244 281 3,000 -300 Descending FlightAware ADS-B
Sun 12:56:13 AM 40.7360 -73.5750 316° Northwest 224 258 3,000 -167 Level FlightAware ADS-B
Sun 12:56:29 AM 40.7460 -73.5930 306° West 214 246 2,900 -500 Descending FlightAware ADS-B
Sun 12:56:37 AM 40.7480 -73.6030 285° West 213 245 2,800 -500 Descending FlightAware ADS-B
Sun 12:56:41 AM 40.7480 -73.6080 270° West 212 244 2,800 -500 Level FlightAware ADS-B
Sun 12:56:49 AM 40.7470 -73.6180 262° West 211 243 2,700 -500 Descending FlightAware ADS-B
Sun 12:57:05 AM 40.7410 -73.6360 246° West 203 234 2,600 -333 Descending FlightAware ADS-B
Sun 12:57:25 AM 40.7330 -73.6580 244° Southwest 180 207 2,500 -450 Descending FlightAware ADS-B
Sun 12:57:45 AM 40.7270 -73.6770 247° West 174 200 2,300 -833 Descending FlightAware ADS-B
Sun 12:58:01 AM 40.7200 -73.6920 238° Southwest 179 206 2,000 -1,200 Descending FlightAware ADS-B
Sun 12:58:05 AM 40.7180 -73.6960 237° Southwest 180 207 1,900 -1,500 Descending FlightAware ADS-B
Sun 12:58:13 AM 40.7130 -73.7010 217° Southwest 185 213 1,700 -857 Descending FlightAware ADS-B
Sun 12:58:26 AM 40.7040 -73.7080 211° Southwest 176 203 1,600 -833 Descending FlightAware ADS-B
Sun 12:58:49 AM 40.6900 -73.7200 213° Southwest 154 177 1,200 -1,116 Descending FlightAware ADS-B
Sun 12:59:09 AM 40.6780 -73.7290 210° Southwest 146 168 800 -900 Descending FlightAware ADS-B
Sun 12:59:29 AM 40.6670 -73.7380 212° Southwest 145 167 600 -750 Descending FlightAware ADS-B
Sun 12:59:49 AM 40.6550 -73.7480 212° Southwest 143 165 300 -750 Descending FlightAware ADS-B
Sun 12:59:53 AM 40.6530 -73.7490 201° Southwest 143 165 300  Level FlightAware ADS-B
Sun 01:00:28 AM 40.6380 -73.7600 209° Southwest 131 151 -514 Descending FlightAware ADS-B
Sun 01:30:18 AM 40.6430 -73.7810 90° East  Level FlightAware ADS-B
Sun 02:04:46 AM 40.6430 -73.7810 270° West  Level FlightAware ADS-B

Login

Don't have an account? Register now (free) for customized features, flight alerts, and more!